sensor_id;sensor_type;location;lat;lon;timestamp;P1;durP1;ratioP1;P2;durP2;ratioP2
53925;SDS011;39836;52.754;6.866;2023-04-07T00:01:44;49.28;;;34.83;;
53925;SDS011;39836;52.754;6.866;2023-04-07T00:04:10;43.83;;;31.20;;
53925;SDS011;39836;52.754;6.866;2023-04-07T00:06:36;55.53;;;36.05;;
53925;SDS011;39836;52.754;6.866;2023-04-07T00:09:01;46.10;;;33.22;;
53925;SDS011;39836;52.754;6.866;2023-04-07T00:11:27;51.33;;;35.00;;
53925;SDS011;39836;52.754;6.866;2023-04-07T00:13:53;52.72;;;38.25;;
53925;SDS011;39836;52.754;6.866;2023-04-07T00:16:18;49.60;;;34.15;;
53925;SDS011;39836;52.754;6.866;2023-04-07T00:18:44;47.90;;;33.53;;
53925;SDS011;39836;52.754;6.866;2023-04-07T00:21:10;50.90;;;31.25;;
53925;SDS011;39836;52.754;6.866;2023-04-07T00:23:35;57.08;;;37.47;;
53925;SDS011;39836;52.754;6.866;2023-04-07T00:26:01;58.22;;;37.63;;
53925;SDS011;39836;52.754;6.866;2023-04-07T00:28:27;57.28;;;40.28;;
53925;SDS011;39836;52.754;6.866;2023-04-07T00:30:52;47.80;;;30.20;;
53925;SDS011;39836;52.754;6.866;2023-04-07T00:33:18;55.97;;;36.28;;
53925;SDS011;39836;52.754;6.866;2023-04-07T00:35:44;50.92;;;35.53;;
53925;SDS011;39836;52.754;6.866;2023-04-07T00:38:10;70.90;;;41.28;;
53925;SDS011;39836;52.754;6.866;2023-04-07T00:40:35;62.45;;;41.20;;
53925;SDS011;39836;52.754;6.866;2023-04-07T00:43:01;67.53;;;42.42;;
53925;SDS011;39836;52.754;6.866;2023-04-07T00:45:27;65.22;;;41.38;;
53925;SDS011;39836;52.754;6.866;2023-04-07T00:47:52;64.05;;;39.40;;
53925;SDS011;39836;52.754;6.866;2023-04-07T00:50:18;66.80;;;43.13;;
53925;SDS011;39836;52.754;6.866;2023-04-07T00:52:44;72.38;;;43.78;;
53925;SDS011;39836;52.754;6.866;2023-04-07T00:55:10;72.82;;;44.78;;
53925;SDS011;39836;52.754;6.866;2023-04-07T00:57:36;62.53;;;38.92;;
53925;SDS011;39836;52.754;6.866;2023-04-07T01:00:02;63.65;;;41.70;;
53925;SDS011;39836;52.754;6.866;2023-04-07T01:05:17;72.15;;;43.72;;
53925;SDS011;39836;52.754;6.866;2023-04-07T01:08:18;74.07;;;43.17;;
53925;SDS011;39836;52.754;6.866;2023-04-07T01:10:59;86.40;;;47.38;;
53925;SDS011;39836;52.754;6.866;2023-04-07T01:13:37;86.88;;;47.00;;
53925;SDS011;39836;52.754;6.866;2023-04-07T01:16:18;82.78;;;48.08;;
53925;SDS011;39836;52.754;6.866;2023-04-07T01:21:39;86.07;;;49.10;;
53925;SDS011;39836;52.754;6.866;2023-04-07T01:26:50;91.10;;;48.97;;
53925;SDS011;39836;52.754;6.866;2023-04-07T01:29:33;74.57;;;44.78;;
53925;SDS011;39836;52.754;6.866;2023-04-07T01:32:01;95.03;;;51.60;;
53925;SDS011;39836;52.754;6.866;2023-04-07T01:34:30;98.03;;;53.22;;
53925;SDS011;39836;52.754;6.866;2023-04-07T01:36:57;96.95;;;51.13;;
53925;SDS011;39836;52.754;6.866;2023-04-07T01:39:26;113.55;;;54.70;;
53925;SDS011;39836;52.754;6.866;2023-04-07T01:41:52;96.85;;;52.15;;
53925;SDS011;39836;52.754;6.866;2023-04-07T01:44:20;114.68;;;54.58;;
53925;SDS011;39836;52.754;6.866;2023-04-07T01:46:47;98.30;;;51.00;;
53925;SDS011;39836;52.754;6.866;2023-04-07T01:49:15;120.00;;;53.17;;
53925;SDS011;39836;52.754;6.866;2023-04-07T01:51:41;105.07;;;53.08;;
53925;SDS011;39836;52.754;6.866;2023-04-07T01:54:08;94.38;;;50.78;;
53925;SDS011;39836;52.754;6.866;2023-04-07T01:56:34;97.63;;;52.35;;
53925;SDS011;39836;52.754;6.866;2023-04-07T01:59:00;113.07;;;53.45;;
53925;SDS011;39836;52.754;6.866;2023-04-07T02:01:26;116.88;;;53.50;;
53925;SDS011;39836;52.754;6.866;2023-04-07T02:04:01;92.28;;;47.65;;
53925;SDS011;39836;52.754;6.866;2023-04-07T02:06:34;92.85;;;50.67;;
53925;SDS011;39836;52.754;6.866;2023-04-07T02:09:06;114.43;;;54.33;;
53925;SDS011;39836;52.754;6.866;2023-04-07T02:11:37;112.72;;;55.60;;
53925;SDS011;39836;52.754;6.866;2023-04-07T02:14:05;124.50;;;55.42;;
53925;SDS011;39836;52.754;6.866;2023-04-07T02:16:32;109.05;;;54.00;;
53925;SDS011;39836;52.754;6.866;2023-04-07T02:18:59;109.78;;;54.63;;
53925;SDS011;39836;52.754;6.866;2023-04-07T02:21:27;114.63;;;51.47;;
53925;SDS011;39836;52.754;6.866;2023-04-07T02:23:54;125.13;;;55.30;;
53925;SDS011;39836;52.754;6.866;2023-04-07T02:26:20;116.93;;;53.70;;
53925;SDS011;39836;52.754;6.866;2023-04-07T02:28:46;114.63;;;51.95;;
53925;SDS011;39836;52.754;6.866;2023-04-07T02:31:12;101.55;;;49.95;;
53925;SDS011;39836;52.754;6.866;2023-04-07T02:33:38;125.35;;;52.33;;
53925;SDS011;39836;52.754;6.866;2023-04-07T02:36:03;103.05;;;49.33;;
53925;SDS011;39836;52.754;6.866;2023-04-07T02:38:30;103.18;;;48.72;;
53925;SDS011;39836;52.754;6.866;2023-04-07T02:40:56;109.47;;;51.15;;
53925;SDS011;39836;52.754;6.866;2023-04-07T02:43:22;110.60;;;49.53;;
53925;SDS011;39836;52.754;6.866;2023-04-07T02:45:49;99.43;;;48.35;;
53925;SDS011;39836;52.754;6.866;2023-04-07T02:48:15;116.70;;;51.42;;
53925;SDS011;39836;52.754;6.866;2023-04-07T02:50:41;108.25;;;50.42;;
53925;SDS011;39836;52.754;6.866;2023-04-07T02:53:06;106.05;;;51.55;;
53925;SDS011;39836;52.754;6.866;2023-04-07T02:55:32;107.72;;;51.97;;
53925;SDS011;39836;52.754;6.866;2023-04-07T02:57:58;112.68;;;53.08;;
53925;SDS011;39836;52.754;6.866;2023-04-07T03:00:24;114.85;;;53.63;;
53925;SDS011;39836;52.754;6.866;2023-04-07T03:02:50;110.78;;;52.85;;
53925;SDS011;39836;52.754;6.866;2023-04-07T03:05:16;126.18;;;54.47;;
53925;SDS011;39836;52.754;6.866;2023-04-07T03:07:41;119.00;;;54.08;;
53925;SDS011;39836;52.754;6.866;2023-04-07T03:10:07;112.15;;;53.75;;
53925;SDS011;39836;52.754;6.866;2023-04-07T03:12:33;108.13;;;51.05;;
53925;SDS011;39836;52.754;6.866;2023-04-07T03:14:59;106.10;;;52.75;;
53925;SDS011;39836;52.754;6.866;2023-04-07T03:17:25;112.88;;;52.08;;
53925;SDS011;39836;52.754;6.866;2023-04-07T03:19:50;107.28;;;52.53;;
53925;SDS011;39836;52.754;6.866;2023-04-07T03:22:16;119.82;;;53.13;;
53925;SDS011;39836;52.754;6.866;2023-04-07T03:24:42;103.10;;;48.83;;
53925;SDS011;39836;52.754;6.866;2023-04-07T03:27:07;115.13;;;54.78;;
53925;SDS011;39836;52.754;6.866;2023-04-07T03:29:33;114.18;;;51.17;;
53925;SDS011;39836;52.754;6.866;2023-04-07T03:31:59;102.20;;;48.10;;
53925;SDS011;39836;52.754;6.866;2023-04-07T03:34:25;100.53;;;51.97;;
53925;SDS011;39836;52.754;6.866;2023-04-07T03:36:50;100.72;;;47.85;;
53925;SDS011;39836;52.754;6.866;2023-04-07T03:39:16;99.63;;;48.92;;
53925;SDS011;39836;52.754;6.866;2023-04-07T03:41:42;96.20;;;47.55;;
53925;SDS011;39836;52.754;6.866;2023-04-07T03:44:07;99.85;;;52.50;;
53925;SDS011;39836;52.754;6.866;2023-04-07T03:46:33;94.40;;;46.72;;
53925;SDS011;39836;52.754;6.866;2023-04-07T03:48:59;95.13;;;47.83;;
53925;SDS011;39836;52.754;6.866;2023-04-07T03:51:24;90.43;;;47.65;;
53925;SDS011;39836;52.754;6.866;2023-04-07T03:53:51;91.55;;;47.05;;
53925;SDS011;39836;52.754;6.866;2023-04-07T03:56:17;92.03;;;46.83;;
53925;SDS011;39836;52.754;6.866;2023-04-07T03:58:43;95.85;;;49.08;;
53925;SDS011;39836;52.754;6.866;2023-04-07T04:01:10;88.95;;;46.53;;
53925;SDS011;39836;52.754;6.866;2023-04-07T04:03:36;89.13;;;46.75;;
53925;SDS011;39836;52.754;6.866;2023-04-07T04:06:02;90.97;;;46.90;;
53925;SDS011;39836;52.754;6.866;2023-04-07T04:08:28;87.65;;;44.47;;
53925;SDS011;39836;52.754;6.866;2023-04-07T04:10:55;92.43;;;45.85;;
53925;SDS011;39836;52.754;6.866;2023-04-07T04:13:21;85.50;;;43.15;;
53925;SDS011;39836;52.754;6.866;2023-04-07T04:15:47;100.60;;;46.97;;
53925;SDS011;39836;52.754;6.866;2023-04-07T04:18:12;98.53;;;49.17;;
53925;SDS011;39836;52.754;6.866;2023-04-07T04:20:38;87.30;;;43.28;;
53925;SDS011;39836;52.754;6.866;2023-04-07T04:23:04;108.00;;;46.95;;
53925;SDS011;39836;52.754;6.866;2023-04-07T04:25:29;90.75;;;45.70;;
53925;SDS011;39836;52.754;6.866;2023-04-07T04:27:55;89.82;;;43.78;;
53925;SDS011;39836;52.754;6.866;2023-04-07T04:30:21;84.07;;;43.90;;
53925;SDS011;39836;52.754;6.866;2023-04-07T04:32:47;86.55;;;42.88;;
53925;SDS011;39836;52.754;6.866;2023-04-07T04:35:13;83.65;;;41.97;;
53925;SDS011;39836;52.754;6.866;2023-04-07T04:37:39;78.22;;;41.42;;
53925;SDS011;39836;52.754;6.866;2023-04-07T04:40:05;82.50;;;40.83;;
53925;SDS011;39836;52.754;6.866;2023-04-07T04:42:32;77.88;;;41.38;;
53925;SDS011;39836;52.754;6.866;2023-04-07T04:44:58;76.93;;;39.50;;
53925;SDS011;39836;52.754;6.866;2023-04-07T04:47:24;84.80;;;41.38;;
53925;SDS011;39836;52.754;6.866;2023-04-07T04:49:50;67.30;;;35.67;;
53925;SDS011;39836;52.754;6.866;2023-04-07T04:52:15;72.80;;;40.35;;
53925;SDS011;39836;52.754;6.866;2023-04-07T04:54:41;68.22;;;36.40;;
53925;SDS011;39836;52.754;6.866;2023-04-07T04:57:07;69.70;;;39.08;;
53925;SDS011;39836;52.754;6.866;2023-04-07T04:59:33;74.43;;;38.20;;
53925;SDS011;39836;52.754;6.866;2023-04-07T05:01:58;65.18;;;38.63;;
53925;SDS011;39836;52.754;6.866;2023-04-07T05:04:24;64.82;;;36.15;;
53925;SDS011;39836;52.754;6.866;2023-04-07T05:06:50;61.42;;;33.00;;
53925;SDS011;39836;52.754;6.866;2023-04-07T05:09:16;66.13;;;38.40;;
53925;SDS011;39836;52.754;6.866;2023-04-07T05:11:42;57.67;;;35.85;;
53925;SDS011;39836;52.754;6.866;2023-04-07T05:14:07;62.67;;;38.55;;
53925;SDS011;39836;52.754;6.866;2023-04-07T05:16:34;70.70;;;37.88;;
53925;SDS011;39836;52.754;6.866;2023-04-07T05:19:00;71.57;;;38.28;;
53925;SDS011;39836;52.754;6.866;2023-04-07T05:21:25;63.00;;;37.08;;
53925;SDS011;39836;52.754;6.866;2023-04-07T05:23:51;61.72;;;36.45;;
53925;SDS011;39836;52.754;6.866;2023-04-07T05:26:17;66.35;;;37.53;;
53925;SDS011;39836;52.754;6.866;2023-04-07T05:28:43;66.07;;;38.45;;
53925;SDS011;39836;52.754;6.866;2023-04-07T05:31:09;56.80;;;32.67;;
53925;SDS011;39836;52.754;6.866;2023-04-07T05:33:35;63.97;;;37.70;;
53925;SDS011;39836;52.754;6.866;2023-04-07T05:36:00;59.08;;;34.80;;
53925;SDS011;39836;52.754;6.866;2023-04-07T05:38:26;64.70;;;38.80;;
53925;SDS011;39836;52.754;6.866;2023-04-07T05:40:52;66.40;;;39.13;;
53925;SDS011;39836;52.754;6.866;2023-04-07T05:43:17;61.00;;;38.05;;
53925;SDS011;39836;52.754;6.866;2023-04-07T05:45:43;60.25;;;36.58;;
53925;SDS011;39836;52.754;6.866;2023-04-07T05:48:09;58.90;;;36.35;;
53925;SDS011;39836;52.754;6.866;2023-04-07T05:50:35;58.72;;;36.75;;
53925;SDS011;39836;52.754;6.866;2023-04-07T05:53:01;64.72;;;39.58;;
53925;SDS011;39836;52.754;6.866;2023-04-07T05:55:26;62.88;;;37.65;;
53925;SDS011;39836;52.754;6.866;2023-04-07T05:57:52;61.83;;;37.80;;
53925;SDS011;39836;52.754;6.866;2023-04-07T06:00:18;61.92;;;36.75;;
53925;SDS011;39836;52.754;6.866;2023-04-07T06:02:44;58.88;;;35.03;;
53925;SDS011;39836;52.754;6.866;2023-04-07T06:05:10;64.95;;;38.95;;
53925;SDS011;39836;52.754;6.866;2023-04-07T06:07:36;55.33;;;35.13;;
53925;SDS011;39836;52.754;6.866;2023-04-07T06:10:02;56.88;;;33.97;;
53925;SDS011;39836;52.754;6.866;2023-04-07T06:12:28;59.75;;;36.80;;
53925;SDS011;39836;52.754;6.866;2023-04-07T06:14:54;62.00;;;35.67;;
53925;SDS011;39836;52.754;6.866;2023-04-07T06:17:20;56.25;;;36.28;;
53925;SDS011;39836;52.754;6.866;2023-04-07T06:19:46;55.65;;;36.20;;
53925;SDS011;39836;52.754;6.866;2023-04-07T06:22:11;51.45;;;33.92;;
53925;SDS011;39836;52.754;6.866;2023-04-07T06:24:37;54.53;;;34.42;;
53925;SDS011;39836;52.754;6.866;2023-04-07T06:27:03;52.65;;;32.05;;
53925;SDS011;39836;52.754;6.866;2023-04-07T06:29:29;55.15;;;34.47;;
53925;SDS011;39836;52.754;6.866;2023-04-07T06:31:57;57.35;;;35.22;;
53925;SDS011;39836;52.754;6.866;2023-04-07T06:34:22;56.28;;;36.00;;
53925;SDS011;39836;52.754;6.866;2023-04-07T06:36:48;53.63;;;34.15;;
53925;SDS011;39836;52.754;6.866;2023-04-07T06:39:14;55.65;;;35.20;;
53925;SDS011;39836;52.754;6.866;2023-04-07T06:41:39;55.95;;;34.67;;
53925;SDS011;39836;52.754;6.866;2023-04-07T06:44:08;56.17;;;37.58;;
53925;SDS011;39836;52.754;6.866;2023-04-07T06:46:37;62.88;;;33.95;;
53925;SDS011;39836;52.754;6.866;2023-04-07T06:49:03;54.72;;;33.58;;
53925;SDS011;39836;52.754;6.866;2023-04-07T06:51:29;54.95;;;34.58;;
53925;SDS011;39836;52.754;6.866;2023-04-07T06:53:56;52.17;;;32.40;;
53925;SDS011;39836;52.754;6.866;2023-04-07T06:56:22;53.20;;;33.45;;
53925;SDS011;39836;52.754;6.866;2023-04-07T06:58:48;54.00;;;33.92;;
53925;SDS011;39836;52.754;6.866;2023-04-07T07:01:15;47.92;;;30.75;;
53925;SDS011;39836;52.754;6.866;2023-04-07T07:03:40;52.17;;;33.58;;
53925;SDS011;39836;52.754;6.866;2023-04-07T07:06:06;49.45;;;32.03;;
53925;SDS011;39836;52.754;6.866;2023-04-07T07:08:32;52.38;;;33.00;;
53925;SDS011;39836;52.754;6.866;2023-04-07T07:10:58;52.20;;;32.97;;
53925;SDS011;39836;52.754;6.866;2023-04-07T07:13:24;50.88;;;31.27;;
53925;SDS011;39836;52.754;6.866;2023-04-07T07:15:50;49.08;;;31.95;;
53925;SDS011;39836;52.754;6.866;2023-04-07T07:18:17;47.35;;;31.05;;
53925;SDS011;39836;52.754;6.866;2023-04-07T07:20:43;47.83;;;31.55;;
53925;SDS011;39836;52.754;6.866;2023-04-07T07:23:09;51.72;;;35.15;;
53925;SDS011;39836;52.754;6.866;2023-04-07T07:25:35;48.67;;;33.63;;
53925;SDS011;39836;52.754;6.866;2023-04-07T07:28:01;43.92;;;32.00;;
53925;SDS011;39836;52.754;6.866;2023-04-07T07:30:26;46.90;;;32.28;;
53925;SDS011;39836;52.754;6.866;2023-04-07T07:32:52;51.20;;;35.22;;
53925;SDS011;39836;52.754;6.866;2023-04-07T07:35:19;50.42;;;34.45;;
53925;SDS011;39836;52.754;6.866;2023-04-07T07:37:45;48.03;;;33.50;;
53925;SDS011;39836;52.754;6.866;2023-04-07T07:40:11;42.67;;;30.30;;
53925;SDS011;39836;52.754;6.866;2023-04-07T07:42:37;48.47;;;35.28;;
53925;SDS011;39836;52.754;6.866;2023-04-07T07:45:03;51.80;;;35.80;;
53925;SDS011;39836;52.754;6.866;2023-04-07T07:47:29;49.63;;;31.83;;
53925;SDS011;39836;52.754;6.866;2023-04-07T07:49:55;42.22;;;30.83;;
53925;SDS011;39836;52.754;6.866;2023-04-07T07:52:21;43.67;;;32.63;;
53925;SDS011;39836;52.754;6.866;2023-04-07T07:54:47;47.13;;;33.83;;
53925;SDS011;39836;52.754;6.866;2023-04-07T07:57:13;49.53;;;34.45;;
53925;SDS011;39836;52.754;6.866;2023-04-07T07:59:39;42.03;;;32.40;;
53925;SDS011;39836;52.754;6.866;2023-04-07T08:02:05;42.80;;;30.27;;
53925;SDS011;39836;52.754;6.866;2023-04-07T08:04:32;43.50;;;30.90;;
53925;SDS011;39836;52.754;6.866;2023-04-07T08:06:57;38.70;;;30.55;;
53925;SDS011;39836;52.754;6.866;2023-04-07T08:09:23;44.20;;;31.63;;
53925;SDS011;39836;52.754;6.866;2023-04-07T08:11:49;41.45;;;31.25;;
53925;SDS011;39836;52.754;6.866;2023-04-07T08:14:15;45.47;;;33.80;;
53925;SDS011;39836;52.754;6.866;2023-04-07T08:16:41;43.53;;;31.73;;
53925;SDS011;39836;52.754;6.866;2023-04-07T08:19:07;44.63;;;33.80;;
53925;SDS011;39836;52.754;6.866;2023-04-07T08:21:33;40.35;;;30.25;;
53925;SDS011;39836;52.754;6.866;2023-04-07T08:23:59;39.58;;;30.25;;
53925;SDS011;39836;52.754;6.866;2023-04-07T08:26:25;48.40;;;35.72;;
53925;SDS011;39836;52.754;6.866;2023-04-07T08:28:51;47.67;;;35.13;;
53925;SDS011;39836;52.754;6.866;2023-04-07T08:31:17;47.30;;;36.15;;
53925;SDS011;39836;52.754;6.866;2023-04-07T08:33:43;54.63;;;40.22;;
53925;SDS011;39836;52.754;6.866;2023-04-07T08:36:10;49.13;;;36.88;;
53925;SDS011;39836;52.754;6.866;2023-04-07T08:38:36;52.13;;;37.10;;
53925;SDS011;39836;52.754;6.866;2023-04-07T08:41:03;51.60;;;37.40;;
53925;SDS011;39836;52.754;6.866;2023-04-07T08:43:37;58.17;;;41.15;;
53925;SDS011;39836;52.754;6.866;2023-04-07T08:46:04;50.65;;;37.20;;
53925;SDS011;39836;52.754;6.866;2023-04-07T08:48:32;42.47;;;32.35;;
53925;SDS011;39836;52.754;6.866;2023-04-07T08:50:59;41.40;;;31.70;;
53925;SDS011;39836;52.754;6.866;2023-04-07T08:53:33;32.80;;;25.98;;
53925;SDS011;39836;52.754;6.866;2023-04-07T08:56:04;28.58;;;22.55;;
53925;SDS011;39836;52.754;6.866;2023-04-07T08:58:31;31.65;;;22.50;;
53925;SDS011;39836;52.754;6.866;2023-04-07T09:00:57;25.90;;;20.50;;
53925;SDS011;39836;52.754;6.866;2023-04-07T09:03:23;26.70;;;20.23;;
53925;SDS011;39836;52.754;6.866;2023-04-07T09:05:50;23.67;;;18.30;;
53925;SDS011;39836;52.754;6.866;2023-04-07T09:08:17;22.10;;;16.60;;
53925;SDS011;39836;52.754;6.866;2023-04-07T09:10:42;19.38;;;15.43;;
53925;SDS011;39836;52.754;6.866;2023-04-07T09:13:08;14.52;;;11.82;;
53925;SDS011;39836;52.754;6.866;2023-04-07T09:15:34;17.00;;;12.98;;
53925;SDS011;39836;52.754;6.866;2023-04-07T09:18:00;15.90;;;12.88;;
53925;SDS011;39836;52.754;6.866;2023-04-07T09:20:26;15.90;;;14.00;;
53925;SDS011;39836;52.754;6.866;2023-04-07T09:22:52;14.73;;;12.65;;
53925;SDS011;39836;52.754;6.866;2023-04-07T09:28:02;21.17;;;13.65;;
53925;SDS011;39836;52.754;6.866;2023-04-07T09:30:30;14.68;;;11.23;;
53925;SDS011;39836;52.754;6.866;2023-04-07T09:32:57;16.08;;;12.40;;
53925;SDS011;39836;52.754;6.866;2023-04-07T09:35:24;17.00;;;12.50;;
53925;SDS011;39836;52.754;6.866;2023-04-07T09:38:05;15.10;;;12.05;;
53925;SDS011;39836;52.754;6.866;2023-04-07T09:40:32;17.40;;;13.07;;
53925;SDS011;39836;52.754;6.866;2023-04-07T09:42:58;15.63;;;12.48;;
53925;SDS011;39836;52.754;6.866;2023-04-07T09:45:29;15.35;;;12.20;;
53925;SDS011;39836;52.754;6.866;2023-04-07T09:51:09;13.60;;;10.90;;
53925;SDS011;39836;52.754;6.866;2023-04-07T09:53:40;12.82;;;10.95;;
53925;SDS011;39836;52.754;6.866;2023-04-07T09:56:13;13.63;;;10.63;;
53925;SDS011;39836;52.754;6.866;2023-04-07T10:01:19;12.65;;;10.45;;
53925;SDS011;39836;52.754;6.866;2023-04-07T10:03:46;12.73;;;9.43;;
53925;SDS011;39836;52.754;6.866;2023-04-07T10:06:12;10.93;;;9.25;;
53925;SDS011;39836;52.754;6.866;2023-04-07T10:08:39;11.05;;;9.05;;
53925;SDS011;39836;52.754;6.866;2023-04-07T10:11:06;12.45;;;9.93;;
53925;SDS011;39836;52.754;6.866;2023-04-07T10:13:35;14.02;;;11.35;;
53925;SDS011;39836;52.754;6.866;2023-04-07T10:16:04;14.65;;;11.02;;
53925;SDS011;39836;52.754;6.866;2023-04-07T10:18:32;14.50;;;10.93;;
53925;SDS011;39836;52.754;6.866;2023-04-07T10:20:59;11.48;;;9.73;;
53925;SDS011;39836;52.754;6.866;2023-04-07T10:26:14;13.40;;;10.43;;
53925;SDS011;39836;52.754;6.866;2023-04-07T10:28:45;12.95;;;10.57;;
53925;SDS011;39836;52.754;6.866;2023-04-07T10:31:31;13.15;;;10.70;;
53925;SDS011;39836;52.754;6.866;2023-04-07T10:33:57;15.30;;;11.00;;
53925;SDS011;39836;52.754;6.866;2023-04-07T10:36:32;14.70;;;11.45;;
53925;SDS011;39836;52.754;6.866;2023-04-07T10:39:30;15.73;;;12.25;;
53925;SDS011;39836;52.754;6.866;2023-04-07T10:46:34;15.38;;;12.35;;
53925;SDS011;39836;52.754;6.866;2023-04-07T10:53:08;12.65;;;10.27;;
53925;SDS011;39836;52.754;6.866;2023-04-07T10:56:24;14.85;;;10.88;;
53925;SDS011;39836;52.754;6.866;2023-04-07T11:18:44;11.88;;;10.27;;
53925;SDS011;39836;52.754;6.866;2023-04-07T11:40:40;15.55;;;13.20;;
53925;SDS011;39836;52.754;6.866;2023-04-07T11:56:52;14.30;;;10.23;;
53925;SDS011;39836;52.754;6.866;2023-04-07T11:59:23;14.32;;;10.05;;
53925;SDS011;39836;52.754;6.866;2023-04-07T12:01:50;13.52;;;10.68;;
53925;SDS011;39836;52.754;6.866;2023-04-07T12:04:17;12.27;;;9.63;;
53925;SDS011;39836;52.754;6.866;2023-04-07T12:06:44;13.63;;;10.77;;
53925;SDS011;39836;52.754;6.866;2023-04-07T12:12:03;13.52;;;10.65;;
53925;SDS011;39836;52.754;6.866;2023-04-07T12:14:30;15.38;;;11.45;;
53925;SDS011;39836;52.754;6.866;2023-04-07T12:17:00;12.32;;;10.00;;
53925;SDS011;39836;52.754;6.866;2023-04-07T12:19:28;14.82;;;10.82;;
53925;SDS011;39836;52.754;6.866;2023-04-07T12:22:00;12.65;;;11.00;;
53925;SDS011;39836;52.754;6.866;2023-04-07T12:24:35;15.05;;;10.80;;
53925;SDS011;39836;52.754;6.866;2023-04-07T12:27:03;13.82;;;11.23;;
53925;SDS011;39836;52.754;6.866;2023-04-07T12:29:46;13.52;;;11.63;;
53925;SDS011;39836;52.754;6.866;2023-04-07T19:18:25;17.23;;;13.38;;
53925;SDS011;39836;52.754;6.866;2023-04-07T19:21:11;16.90;;;14.25;;
53925;SDS011;39836;52.754;6.866;2023-04-07T19:25:16;15.65;;;13.30;;
53925;SDS011;39836;52.754;6.866;2023-04-07T19:38:22;15.73;;;12.07;;
53925;SDS011;39836;52.754;6.866;2023-04-07T19:40:48;16.92;;;13.38;;
53925;SDS011;39836;52.754;6.866;2023-04-07T19:43:14;17.35;;;13.73;;
53925;SDS011;39836;52.754;6.866;2023-04-07T19:45:42;19.85;;;14.55;;
53925;SDS011;39836;52.754;6.866;2023-04-07T19:48:07;16.92;;;13.43;;
53925;SDS011;39836;52.754;6.866;2023-04-07T19:50:33;19.10;;;13.95;;
53925;SDS011;39836;52.754;6.866;2023-04-07T19:53:07;19.30;;;13.88;;
53925;SDS011;39836;52.754;6.866;2023-04-07T19:55:33;16.58;;;13.07;;
53925;SDS011;39836;52.754;6.866;2023-04-07T19:58:01;19.95;;;15.10;;
53925;SDS011;39836;52.754;6.866;2023-04-07T20:00:26;18.15;;;14.13;;
53925;SDS011;39836;52.754;6.866;2023-04-07T20:02:54;19.08;;;14.30;;
53925;SDS011;39836;52.754;6.866;2023-04-07T20:05:20;20.00;;;14.45;;
53925;SDS011;39836;52.754;6.866;2023-04-07T20:07:46;20.13;;;13.93;;
53925;SDS011;39836;52.754;6.866;2023-04-07T20:10:12;18.80;;;14.77;;
53925;SDS011;39836;52.754;6.866;2023-04-07T20:12:38;15.75;;;13.32;;
53925;SDS011;39836;52.754;6.866;2023-04-07T20:15:04;19.83;;;15.13;;
53925;SDS011;39836;52.754;6.866;2023-04-07T20:17:31;20.33;;;13.35;;
53925;SDS011;39836;52.754;6.866;2023-04-07T20:19:57;17.45;;;12.02;;
53925;SDS011;39836;52.754;6.866;2023-04-07T20:22:22;17.50;;;11.75;;
53925;SDS011;39836;52.754;6.866;2023-04-07T20:24:48;16.52;;;13.13;;
53925;SDS011;39836;52.754;6.866;2023-04-07T20:27:14;17.25;;;12.15;;
53925;SDS011;39836;52.754;6.866;2023-04-07T20:29:39;16.88;;;12.15;;
53925;SDS011;39836;52.754;6.866;2023-04-07T20:32:05;17.27;;;13.20;;
53925;SDS011;39836;52.754;6.866;2023-04-07T20:34:31;17.60;;;13.15;;
53925;SDS011;39836;52.754;6.866;2023-04-07T20:36:57;17.98;;;12.73;;
53925;SDS011;39836;52.754;6.866;2023-04-07T20:39:22;15.02;;;11.75;;
53925;SDS011;39836;52.754;6.866;2023-04-07T20:41:48;15.85;;;11.10;;
53925;SDS011;39836;52.754;6.866;2023-04-07T20:44:14;14.57;;;11.02;;
53925;SDS011;39836;52.754;6.866;2023-04-07T20:46:42;13.98;;;10.55;;
53925;SDS011;39836;52.754;6.866;2023-04-07T20:49:08;15.63;;;10.93;;
53925;SDS011;39836;52.754;6.866;2023-04-07T20:51:34;14.93;;;10.40;;
53925;SDS011;39836;52.754;6.866;2023-04-07T20:54:00;15.02;;;11.00;;
53925;SDS011;39836;52.754;6.866;2023-04-07T20:56:26;16.23;;;10.98;;
53925;SDS011;39836;52.754;6.866;2023-04-07T20:58:53;23.30;;;11.23;;
53925;SDS011;39836;52.754;6.866;2023-04-07T21:01:19;14.30;;;11.02;;
53925;SDS011;39836;52.754;6.866;2023-04-07T21:03:45;15.48;;;10.43;;
53925;SDS011;39836;52.754;6.866;2023-04-07T21:06:10;18.05;;;10.65;;
53925;SDS011;39836;52.754;6.866;2023-04-07T21:08:36;25.90;;;11.10;;
53925;SDS011;39836;52.754;6.866;2023-04-07T21:11:02;13.93;;;10.50;;
53925;SDS011;39836;52.754;6.866;2023-04-07T21:13:27;14.48;;;11.13;;
53925;SDS011;39836;52.754;6.866;2023-04-07T21:15:53;16.25;;;11.73;;
53925;SDS011;39836;52.754;6.866;2023-04-07T21:18:21;15.85;;;11.18;;
53925;SDS011;39836;52.754;6.866;2023-04-07T21:20:47;14.68;;;11.20;;
53925;SDS011;39836;52.754;6.866;2023-04-07T21:23:13;16.80;;;11.35;;
53925;SDS011;39836;52.754;6.866;2023-04-07T21:25:38;14.38;;;11.10;;
53925;SDS011;39836;52.754;6.866;2023-04-07T21:28:04;16.13;;;11.32;;
53925;SDS011;39836;52.754;6.866;2023-04-07T21:30:30;17.35;;;10.90;;
53925;SDS011;39836;52.754;6.866;2023-04-07T21:32:57;18.33;;;12.25;;
53925;SDS011;39836;52.754;6.866;2023-04-07T21:35:25;20.60;;;11.65;;
53925;SDS011;39836;52.754;6.866;2023-04-07T21:37:51;14.13;;;10.77;;
53925;SDS011;39836;52.754;6.866;2023-04-07T21:40:17;16.15;;;10.35;;
53925;SDS011;39836;52.754;6.866;2023-04-07T21:42:43;14.65;;;10.75;;
53925;SDS011;39836;52.754;6.866;2023-04-07T21:45:09;14.98;;;10.80;;
53925;SDS011;39836;52.754;6.866;2023-04-07T21:47:35;16.30;;;10.95;;
53925;SDS011;39836;52.754;6.866;2023-04-07T21:50:01;13.55;;;10.00;;
53925;SDS011;39836;52.754;6.866;2023-04-07T21:52:27;16.70;;;11.05;;
53925;SDS011;39836;52.754;6.866;2023-04-07T21:54:52;14.23;;;9.93;;
53925;SDS011;39836;52.754;6.866;2023-04-07T21:57:18;15.32;;;10.98;;
53925;SDS011;39836;52.754;6.866;2023-04-07T21:59:43;15.57;;;9.68;;
53925;SDS011;39836;52.754;6.866;2023-04-07T22:02:09;12.75;;;9.00;;
53925;SDS011;39836;52.754;6.866;2023-04-07T22:04:36;14.55;;;9.10;;
53925;SDS011;39836;52.754;6.866;2023-04-07T22:07:02;13.18;;;9.73;;
53925;SDS011;39836;52.754;6.866;2023-04-07T22:09:28;15.05;;;10.00;;
53925;SDS011;39836;52.754;6.866;2023-04-07T22:11:53;11.27;;;9.00;;
53925;SDS011;39836;52.754;6.866;2023-04-07T22:14:20;12.75;;;9.18;;
53925;SDS011;39836;52.754;6.866;2023-04-07T22:16:52;15.10;;;9.45;;
53925;SDS011;39836;52.754;6.866;2023-04-07T22:19:17;14.93;;;9.57;;
53925;SDS011;39836;52.754;6.866;2023-04-07T22:21:43;14.55;;;9.77;;
53925;SDS011;39836;52.754;6.866;2023-04-07T22:24:09;12.38;;;9.20;;
53925;SDS011;39836;52.754;6.866;2023-04-07T22:26:35;12.57;;;8.98;;
53925;SDS011;39836;52.754;6.866;2023-04-07T22:29:01;19.55;;;9.63;;
53925;SDS011;39836;52.754;6.866;2023-04-07T22:31:27;14.00;;;9.35;;
53925;SDS011;39836;52.754;6.866;2023-04-07T22:33:52;12.55;;;8.93;;
53925;SDS011;39836;52.754;6.866;2023-04-07T22:36:18;13.68;;;9.60;;
53925;SDS011;39836;52.754;6.866;2023-04-07T22:38:44;15.43;;;10.02;;
53925;SDS011;39836;52.754;6.866;2023-04-07T22:41:09;13.25;;;9.25;;
53925;SDS011;39836;52.754;6.866;2023-04-07T22:43:35;15.93;;;9.50;;